sensor_id;sensor_type;location;lat;lon;timestamp;P1;durP1;ratioP1;P2;durP2;ratioP2
47599;SDS011;33323;52.124;6.018;2022-07-29T00:00:13;2.35;;;0.70;;
47599;SDS011;33323;52.124;6.018;2022-07-29T00:02:41;1.67;;;1.05;;
47599;SDS011;33323;52.124;6.018;2022-07-29T00:05:08;5.85;;;0.77;;
47599;SDS011;33323;52.124;6.018;2022-07-29T00:07:36;2.20;;;0.77;;
47599;SDS011;33323;52.124;6.018;2022-07-29T00:10:03;3.58;;;1.13;;
47599;SDS011;33323;52.124;6.018;2022-07-29T00:12:30;1.60;;;0.90;;
47599;SDS011;33323;52.124;6.018;2022-07-29T00:14:58;2.60;;;1.48;;
47599;SDS011;33323;52.124;6.018;2022-07-29T00:17:25;3.30;;;0.95;;
47599;SDS011;33323;52.124;6.018;2022-07-29T00:19:52;6.15;;;0.70;;
47599;SDS011;33323;52.124;6.018;2022-07-29T00:22:19;2.47;;;0.98;;
47599;SDS011;33323;52.124;6.018;2022-07-29T00:24:47;2.10;;;1.00;;
47599;SDS011;33323;52.124;6.018;2022-07-29T00:27:15;5.03;;;1.00;;
47599;SDS011;33323;52.124;6.018;2022-07-29T00:29:42;3.28;;;1.00;;
47599;SDS011;33323;52.124;6.018;2022-07-29T00:32:10;4.32;;;1.00;;
47599;SDS011;33323;52.124;6.018;2022-07-29T00:34:37;2.90;;;1.80;;
47599;SDS011;33323;52.124;6.018;2022-07-29T00:37:24;6.75;;;1.15;;
47599;SDS011;33323;52.124;6.018;2022-07-29T00:39:51;1.90;;;0.70;;
47599;SDS011;33323;52.124;6.018;2022-07-29T00:42:18;2.08;;;0.90;;
47599;SDS011;33323;52.124;6.018;2022-07-29T00:44:45;3.70;;;0.88;;
47599;SDS011;33323;52.124;6.018;2022-07-29T00:47:12;3.83;;;0.70;;
47599;SDS011;33323;52.124;6.018;2022-07-29T00:49:40;3.33;;;1.20;;
47599;SDS011;33323;52.124;6.018;2022-07-29T00:52:08;2.70;;;1.17;;
47599;SDS011;33323;52.124;6.018;2022-07-29T00:54:37;3.75;;;1.13;;
47599;SDS011;33323;52.124;6.018;2022-07-29T00:57:10;2.42;;;1.08;;
47599;SDS011;33323;52.124;6.018;2022-07-29T00:59:38;1.58;;;1.08;;
47599;SDS011;33323;52.124;6.018;2022-07-29T01:02:05;4.07;;;1.02;;
47599;SDS011;33323;52.124;6.018;2022-07-29T01:04:33;2.45;;;0.93;;
47599;SDS011;33323;52.124;6.018;2022-07-29T01:07:01;5.35;;;1.05;;
47599;SDS011;33323;52.124;6.018;2022-07-29T01:09:29;2.95;;;1.02;;
47599;SDS011;33323;52.124;6.018;2022-07-29T01:12:11;2.20;;;0.90;;
47599;SDS011;33323;52.124;6.018;2022-07-29T01:14:48;3.08;;;0.95;;
47599;SDS011;33323;52.124;6.018;2022-07-29T01:17:31;3.67;;;1.40;;
47599;SDS011;33323;52.124;6.018;2022-07-29T01:26:34;3.70;;;1.13;;
47599;SDS011;33323;52.124;6.018;2022-07-29T01:29:18;3.70;;;1.00;;
47599;SDS011;33323;52.124;6.018;2022-07-29T01:32:28;4.20;;;1.00;;
47599;SDS011;33323;52.124;6.018;2022-07-29T01:35:10;3.42;;;1.80;;
47599;SDS011;33323;52.124;6.018;2022-07-29T01:37:57;4.07;;;1.17;;
47599;SDS011;33323;52.124;6.018;2022-07-29T01:43:11;3.70;;;0.82;;
47599;SDS011;33323;52.124;6.018;2022-07-29T01:45:49;3.13;;;1.25;;
47599;SDS011;33323;52.124;6.018;2022-07-29T01:48:26;3.72;;;1.35;;
47599;SDS011;33323;52.124;6.018;2022-07-29T01:54:02;3.60;;;1.17;;
47599;SDS011;33323;52.124;6.018;2022-07-29T01:56:43;4.20;;;1.73;;
47599;SDS011;33323;52.124;6.018;2022-07-29T01:59:17;5.85;;;2.47;;
47599;SDS011;33323;52.124;6.018;2022-07-29T02:01:46;2.65;;;1.13;;
47599;SDS011;33323;52.124;6.018;2022-07-29T02:04:19;7.53;;;2.05;;
47599;SDS011;33323;52.124;6.018;2022-07-29T02:06:57;2.10;;;1.13;;
47599;SDS011;33323;52.124;6.018;2022-07-29T02:09:29;2.25;;;1.90;;
47599;SDS011;33323;52.124;6.018;2022-07-29T02:11:58;3.80;;;1.35;;
47599;SDS011;33323;52.124;6.018;2022-07-29T02:14:28;6.70;;;1.83;;
47599;SDS011;33323;52.124;6.018;2022-07-29T02:17:00;3.30;;;1.40;;
47599;SDS011;33323;52.124;6.018;2022-07-29T02:19:29;2.65;;;1.10;;
47599;SDS011;33323;52.124;6.018;2022-07-29T02:21:58;4.18;;;1.60;;
47599;SDS011;33323;52.124;6.018;2022-07-29T02:24:27;4.40;;;1.23;;
47599;SDS011;33323;52.124;6.018;2022-07-29T02:26:56;2.10;;;1.30;;
47599;SDS011;33323;52.124;6.018;2022-07-29T02:29:26;6.68;;;2.22;;
47599;SDS011;33323;52.124;6.018;2022-07-29T02:31:54;4.72;;;1.52;;
47599;SDS011;33323;52.124;6.018;2022-07-29T02:34:24;2.65;;;1.33;;
47599;SDS011;33323;52.124;6.018;2022-07-29T02:36:53;6.68;;;1.98;;
47599;SDS011;33323;52.124;6.018;2022-07-29T02:39:21;4.53;;;1.40;;
47599;SDS011;33323;52.124;6.018;2022-07-29T02:41:51;2.53;;;1.30;;
47599;SDS011;33323;52.124;6.018;2022-07-29T02:44:25;2.80;;;1.80;;
47599;SDS011;33323;52.124;6.018;2022-07-29T02:50:17;5.70;;;1.45;;
47599;SDS011;33323;52.124;6.018;2022-07-29T02:53:00;3.42;;;1.20;;
47599;SDS011;33323;52.124;6.018;2022-07-29T02:55:38;4.03;;;1.70;;
47599;SDS011;33323;52.124;6.018;2022-07-29T02:58:14;3.85;;;1.63;;
47599;SDS011;33323;52.124;6.018;2022-07-29T03:00:49;3.42;;;1.40;;
47599;SDS011;33323;52.124;6.018;2022-07-29T03:03:17;2.50;;;1.65;;
47599;SDS011;33323;52.124;6.018;2022-07-29T03:05:46;1.73;;;0.98;;
47599;SDS011;33323;52.124;6.018;2022-07-29T03:08:13;4.10;;;1.40;;
47599;SDS011;33323;52.124;6.018;2022-07-29T03:10:45;3.63;;;1.27;;
47599;SDS011;33323;52.124;6.018;2022-07-29T03:13:13;3.30;;;1.15;;
47599;SDS011;33323;52.124;6.018;2022-07-29T03:15:42;2.97;;;1.52;;
47599;SDS011;33323;52.124;6.018;2022-07-29T03:18:10;2.40;;;1.30;;
47599;SDS011;33323;52.124;6.018;2022-07-29T03:20:41;3.03;;;1.15;;
47599;SDS011;33323;52.124;6.018;2022-07-29T03:23:09;1.67;;;1.17;;
47599;SDS011;33323;52.124;6.018;2022-07-29T03:25:36;4.13;;;1.27;;
47599;SDS011;33323;52.124;6.018;2022-07-29T03:28:03;3.15;;;1.80;;
47599;SDS011;33323;52.124;6.018;2022-07-29T03:30:31;4.88;;;1.27;;
47599;SDS011;33323;52.124;6.018;2022-07-29T03:32:59;3.97;;;1.50;;
47599;SDS011;33323;52.124;6.018;2022-07-29T03:35:27;2.45;;;1.10;;
47599;SDS011;33323;52.124;6.018;2022-07-29T03:37:56;3.40;;;1.50;;
47599;SDS011;33323;52.124;6.018;2022-07-29T03:40:26;2.83;;;1.35;;
47599;SDS011;33323;52.124;6.018;2022-07-29T03:42:59;2.97;;;1.33;;
47599;SDS011;33323;52.124;6.018;2022-07-29T03:45:28;3.58;;;1.38;;
47599;SDS011;33323;52.124;6.018;2022-07-29T03:47:59;8.18;;;1.65;;
47599;SDS011;33323;52.124;6.018;2022-07-29T03:50:32;2.97;;;2.08;;
47599;SDS011;33323;52.124;6.018;2022-07-29T03:53:00;2.65;;;1.60;;
47599;SDS011;33323;52.124;6.018;2022-07-29T03:55:28;2.60;;;1.63;;
47599;SDS011;33323;52.124;6.018;2022-07-29T03:58:08;3.72;;;2.00;;
47599;SDS011;33323;52.124;6.018;2022-07-29T04:00:36;3.10;;;2.25;;
47599;SDS011;33323;52.124;6.018;2022-07-29T04:03:04;3.20;;;2.00;;
47599;SDS011;33323;52.124;6.018;2022-07-29T04:05:36;3.38;;;1.70;;
47599;SDS011;33323;52.124;6.018;2022-07-29T04:08:04;4.90;;;2.28;;
47599;SDS011;33323;52.124;6.018;2022-07-29T04:10:31;3.60;;;2.05;;
47599;SDS011;33323;52.124;6.018;2022-07-29T04:13:00;6.28;;;3.42;;
47599;SDS011;33323;52.124;6.018;2022-07-29T04:15:28;5.90;;;2.30;;
47599;SDS011;33323;52.124;6.018;2022-07-29T04:17:57;6.28;;;3.28;;
47599;SDS011;33323;52.124;6.018;2022-07-29T04:20:25;3.78;;;2.30;;
47599;SDS011;33323;52.124;6.018;2022-07-29T04:22:52;4.25;;;2.67;;
47599;SDS011;33323;52.124;6.018;2022-07-29T04:25:19;4.32;;;2.67;;
47599;SDS011;33323;52.124;6.018;2022-07-29T04:27:46;3.38;;;2.42;;
47599;SDS011;33323;52.124;6.018;2022-07-29T04:30:29;4.97;;;2.17;;
47599;SDS011;33323;52.124;6.018;2022-07-29T04:32:58;2.42;;;2.13;;
47599;SDS011;33323;52.124;6.018;2022-07-29T04:35:27;3.00;;;2.15;;
47599;SDS011;33323;52.124;6.018;2022-07-29T04:38:03;4.32;;;2.38;;
47599;SDS011;33323;52.124;6.018;2022-07-29T04:40:40;4.30;;;2.42;;
47599;SDS011;33323;52.124;6.018;2022-07-29T04:43:07;7.72;;;3.42;;
47599;SDS011;33323;52.124;6.018;2022-07-29T04:45:37;3.95;;;3.00;;
47599;SDS011;33323;52.124;6.018;2022-07-29T04:48:04;3.85;;;2.60;;
47599;SDS011;33323;52.124;6.018;2022-07-29T04:50:32;5.82;;;3.60;;
47599;SDS011;33323;52.124;6.018;2022-07-29T04:52:59;5.28;;;2.72;;
47599;SDS011;33323;52.124;6.018;2022-07-29T04:55:26;4.18;;;2.58;;
47599;SDS011;33323;52.124;6.018;2022-07-29T04:57:53;6.50;;;2.72;;
47599;SDS011;33323;52.124;6.018;2022-07-29T05:00:20;4.53;;;3.40;;
47599;SDS011;33323;52.124;6.018;2022-07-29T05:02:56;7.85;;;3.03;;
47599;SDS011;33323;52.124;6.018;2022-07-29T05:05:23;3.40;;;2.45;;
47599;SDS011;33323;52.124;6.018;2022-07-29T05:07:50;4.10;;;2.80;;
47599;SDS011;33323;52.124;6.018;2022-07-29T05:10:17;3.60;;;2.45;;
47599;SDS011;33323;52.124;6.018;2022-07-29T05:12:44;5.45;;;2.67;;
47599;SDS011;33323;52.124;6.018;2022-07-29T05:15:11;7.63;;;3.10;;
47599;SDS011;33323;52.124;6.018;2022-07-29T05:17:38;6.25;;;3.40;;
47599;SDS011;33323;52.124;6.018;2022-07-29T05:20:05;3.78;;;2.85;;
47599;SDS011;33323;52.124;6.018;2022-07-29T05:22:33;6.40;;;2.55;;
47599;SDS011;33323;52.124;6.018;2022-07-29T05:25:00;8.15;;;2.88;;
47599;SDS011;33323;52.124;6.018;2022-07-29T05:27:34;5.22;;;3.25;;
47599;SDS011;33323;52.124;6.018;2022-07-29T05:30:03;6.90;;;3.28;;
47599;SDS011;33323;52.124;6.018;2022-07-29T05:32:30;6.10;;;4.10;;
47599;SDS011;33323;52.124;6.018;2022-07-29T05:34:58;4.68;;;3.22;;
47599;SDS011;33323;52.124;6.018;2022-07-29T05:37:25;5.78;;;2.95;;
47599;SDS011;33323;52.124;6.018;2022-07-29T05:39:52;4.68;;;3.47;;
47599;SDS011;33323;52.124;6.018;2022-07-29T05:42:23;5.22;;;3.67;;
47599;SDS011;33323;52.124;6.018;2022-07-29T05:44:52;4.25;;;3.50;;
47599;SDS011;33323;52.124;6.018;2022-07-29T05:47:19;8.68;;;4.00;;
47599;SDS011;33323;52.124;6.018;2022-07-29T05:49:47;7.45;;;3.30;;
47599;SDS011;33323;52.124;6.018;2022-07-29T05:52:14;8.38;;;3.50;;
47599;SDS011;33323;52.124;6.018;2022-07-29T05:54:41;6.70;;;4.18;;
47599;SDS011;33323;52.124;6.018;2022-07-29T05:57:19;9.10;;;4.80;;
47599;SDS011;33323;52.124;6.018;2022-07-29T05:59:49;8.50;;;4.50;;
47599;SDS011;33323;52.124;6.018;2022-07-29T06:02:17;4.10;;;3.45;;
47599;SDS011;33323;52.124;6.018;2022-07-29T06:04:44;4.43;;;3.53;;
47599;SDS011;33323;52.124;6.018;2022-07-29T06:07:11;7.93;;;3.50;;
47599;SDS011;33323;52.124;6.018;2022-07-29T06:09:38;5.47;;;3.45;;
47599;SDS011;33323;52.124;6.018;2022-07-29T06:12:05;6.07;;;3.20;;
47599;SDS011;33323;52.124;6.018;2022-07-29T06:14:32;4.55;;;3.78;;
47599;SDS011;33323;52.124;6.018;2022-07-29T06:16:59;5.78;;;3.55;;
47599;SDS011;33323;52.124;6.018;2022-07-29T06:19:27;6.55;;;3.10;;
47599;SDS011;33323;52.124;6.018;2022-07-29T06:21:54;5.43;;;3.40;;
47599;SDS011;33323;52.124;6.018;2022-07-29T06:24:21;7.13;;;3.25;;
47599;SDS011;33323;52.124;6.018;2022-07-29T06:26:48;3.85;;;2.65;;
47599;SDS011;33323;52.124;6.018;2022-07-29T06:29:15;4.45;;;3.10;;
47599;SDS011;33323;52.124;6.018;2022-07-29T06:31:42;5.47;;;3.83;;
47599;SDS011;33323;52.124;6.018;2022-07-29T06:34:09;8.20;;;3.65;;
47599;SDS011;33323;52.124;6.018;2022-07-29T06:36:36;5.00;;;3.22;;
47599;SDS011;33323;52.124;6.018;2022-07-29T06:39:06;5.35;;;3.90;;
47599;SDS011;33323;52.124;6.018;2022-07-29T06:41:34;11.27;;;3.90;;
47599;SDS011;33323;52.124;6.018;2022-07-29T06:44:07;4.30;;;2.88;;
47599;SDS011;33323;52.124;6.018;2022-07-29T06:46:35;6.70;;;2.63;;
47599;SDS011;33323;52.124;6.018;2022-07-29T06:49:03;4.40;;;2.88;;
47599;SDS011;33323;52.124;6.018;2022-07-29T06:51:30;7.60;;;2.70;;
47599;SDS011;33323;52.124;6.018;2022-07-29T06:53:57;5.30;;;2.80;;
47599;SDS011;33323;52.124;6.018;2022-07-29T06:56:31;4.53;;;2.65;;
47599;SDS011;33323;52.124;6.018;2022-07-29T06:59:05;7.50;;;2.70;;
47599;SDS011;33323;52.124;6.018;2022-07-29T07:01:41;8.52;;;4.07;;
47599;SDS011;33323;52.124;6.018;2022-07-29T07:04:09;3.55;;;2.60;;
47599;SDS011;33323;52.124;6.018;2022-07-29T07:06:37;7.15;;;2.50;;
47599;SDS011;33323;52.124;6.018;2022-07-29T07:09:05;8.55;;;2.50;;
47599;SDS011;33323;52.124;6.018;2022-07-29T07:11:32;2.90;;;2.05;;
47599;SDS011;33323;52.124;6.018;2022-07-29T07:13:59;6.45;;;2.35;;
47599;SDS011;33323;52.124;6.018;2022-07-29T07:16:29;8.00;;;2.10;;
47599;SDS011;33323;52.124;6.018;2022-07-29T07:18:57;3.10;;;2.40;;
47599;SDS011;33323;52.124;6.018;2022-07-29T07:21:24;5.15;;;2.50;;
47599;SDS011;33323;52.124;6.018;2022-07-29T07:23:55;4.53;;;2.03;;
47599;SDS011;33323;52.124;6.018;2022-07-29T07:26:22;5.28;;;2.30;;
47599;SDS011;33323;52.124;6.018;2022-07-29T07:28:50;4.50;;;2.25;;
47599;SDS011;33323;52.124;6.018;2022-07-29T07:31:17;5.57;;;2.67;;
47599;SDS011;33323;52.124;6.018;2022-07-29T07:33:44;4.57;;;2.20;;
47599;SDS011;33323;52.124;6.018;2022-07-29T07:36:11;6.68;;;2.92;;
47599;SDS011;33323;52.124;6.018;2022-07-29T07:38:38;4.15;;;3.13;;
47599;SDS011;33323;52.124;6.018;2022-07-29T07:41:05;5.78;;;2.80;;
47599;SDS011;33323;52.124;6.018;2022-07-29T07:43:32;3.55;;;2.42;;
47599;SDS011;33323;52.124;6.018;2022-07-29T07:45:59;4.32;;;2.65;;
47599;SDS011;33323;52.124;6.018;2022-07-29T07:48:26;7.38;;;2.65;;
47599;SDS011;33323;52.124;6.018;2022-07-29T07:50:53;8.20;;;2.92;;
47599;SDS011;33323;52.124;6.018;2022-07-29T07:53:21;5.68;;;3.00;;
47599;SDS011;33323;52.124;6.018;2022-07-29T07:55:48;3.90;;;3.05;;
47599;SDS011;33323;52.124;6.018;2022-07-29T07:58:35;11.07;;;3.53;;
47599;SDS011;33323;52.124;6.018;2022-07-29T08:01:02;6.05;;;3.88;;
47599;SDS011;33323;52.124;6.018;2022-07-29T08:03:29;4.07;;;2.88;;
47599;SDS011;33323;52.124;6.018;2022-07-29T08:05:56;8.02;;;3.17;;
47599;SDS011;33323;52.124;6.018;2022-07-29T08:08:23;5.68;;;2.78;;
47599;SDS011;33323;52.124;6.018;2022-07-29T08:10:50;4.75;;;3.08;;
47599;SDS011;33323;52.124;6.018;2022-07-29T08:13:27;6.90;;;3.20;;
47599;SDS011;33323;52.124;6.018;2022-07-29T08:15:56;6.57;;;2.55;;
47599;SDS011;33323;52.124;6.018;2022-07-29T08:18:24;8.88;;;2.92;;
47599;SDS011;33323;52.124;6.018;2022-07-29T08:20:55;4.32;;;3.20;;
47599;SDS011;33323;52.124;6.018;2022-07-29T08:23:23;4.35;;;2.90;;
47599;SDS011;33323;52.124;6.018;2022-07-29T08:25:50;5.45;;;3.45;;
47599;SDS011;33323;52.124;6.018;2022-07-29T08:28:20;9.38;;;2.67;;
47599;SDS011;33323;52.124;6.018;2022-07-29T08:30:51;6.18;;;2.88;;
47599;SDS011;33323;52.124;6.018;2022-07-29T08:33:18;6.43;;;3.25;;
47599;SDS011;33323;52.124;6.018;2022-07-29T08:35:45;5.43;;;2.53;;
47599;SDS011;33323;52.124;6.018;2022-07-29T08:38:12;4.38;;;3.03;;
47599;SDS011;33323;52.124;6.018;2022-07-29T08:40:39;6.80;;;3.10;;
47599;SDS011;33323;52.124;6.018;2022-07-29T08:43:09;6.18;;;3.70;;
47599;SDS011;33323;52.124;6.018;2022-07-29T08:45:41;5.80;;;3.28;;
47599;SDS011;33323;52.124;6.018;2022-07-29T08:48:17;4.43;;;2.67;;
47599;SDS011;33323;52.124;6.018;2022-07-29T08:50:50;6.30;;;3.08;;
47599;SDS011;33323;52.124;6.018;2022-07-29T08:53:22;8.30;;;2.95;;
47599;SDS011;33323;52.124;6.018;2022-07-29T08:55:53;6.38;;;3.10;;
47599;SDS011;33323;52.124;6.018;2022-07-29T08:58:21;4.43;;;2.60;;
47599;SDS011;33323;52.124;6.018;2022-07-29T09:00:52;4.95;;;2.65;;
47599;SDS011;33323;52.124;6.018;2022-07-29T09:03:23;6.55;;;3.33;;
47599;SDS011;33323;52.124;6.018;2022-07-29T09:05:53;4.63;;;3.30;;
47599;SDS011;33323;52.124;6.018;2022-07-29T09:08:21;5.10;;;3.35;;
47599;SDS011;33323;52.124;6.018;2022-07-29T09:10:49;10.85;;;3.30;;
47599;SDS011;33323;52.124;6.018;2022-07-29T09:13:17;5.32;;;3.38;;
47599;SDS011;33323;52.124;6.018;2022-07-29T09:15:44;4.32;;;3.20;;
47599;SDS011;33323;52.124;6.018;2022-07-29T09:18:11;8.93;;;3.72;;
47599;SDS011;33323;52.124;6.018;2022-07-29T09:20:55;8.63;;;3.53;;
47599;SDS011;33323;52.124;6.018;2022-07-29T09:23:40;11.32;;;2.90;;
47599;SDS011;33323;52.124;6.018;2022-07-29T09:26:09;6.45;;;2.97;;
47599;SDS011;33323;52.124;6.018;2022-07-29T09:28:41;5.85;;;3.03;;
47599;SDS011;33323;52.124;6.018;2022-07-29T09:31:08;4.40;;;2.92;;
47599;SDS011;33323;52.124;6.018;2022-07-29T09:33:35;8.73;;;3.47;;
47599;SDS011;33323;52.124;6.018;2022-07-29T09:36:06;7.28;;;2.88;;
47599;SDS011;33323;52.124;6.018;2022-07-29T09:38:35;9.82;;;3.53;;
47599;SDS011;33323;52.124;6.018;2022-07-29T09:41:04;7.55;;;2.95;;
47599;SDS011;33323;52.124;6.018;2022-07-29T09:43:32;7.50;;;3.45;;
47599;SDS011;33323;52.124;6.018;2022-07-29T09:46:10;7.45;;;3.40;;
47599;SDS011;33323;52.124;6.018;2022-07-29T09:48:38;4.32;;;3.38;;
47599;SDS011;33323;52.124;6.018;2022-07-29T09:51:16;5.82;;;3.55;;
47599;SDS011;33323;52.124;6.018;2022-07-29T09:54:24;4.07;;;2.83;;
47599;SDS011;33323;52.124;6.018;2022-07-29T09:56:53;7.78;;;3.30;;
47599;SDS011;33323;52.124;6.018;2022-07-29T09:59:21;5.93;;;3.45;;
47599;SDS011;33323;52.124;6.018;2022-07-29T10:01:52;13.45;;;4.53;;
47599;SDS011;33323;52.124;6.018;2022-07-29T10:04:20;7.35;;;4.65;;
47599;SDS011;33323;52.124;6.018;2022-07-29T10:09:30;7.65;;;4.65;;
47599;SDS011;33323;52.124;6.018;2022-07-29T10:12:06;4.57;;;3.92;;
47599;SDS011;33323;52.124;6.018;2022-07-29T10:14:41;5.05;;;3.75;;
47599;SDS011;33323;52.124;6.018;2022-07-29T10:17:09;8.85;;;4.75;;
47599;SDS011;33323;52.124;6.018;2022-07-29T10:19:37;9.48;;;4.68;;
47599;SDS011;33323;52.124;6.018;2022-07-29T10:22:06;8.20;;;4.25;;
47599;SDS011;33323;52.124;6.018;2022-07-29T10:24:35;5.45;;;3.63;;
47599;SDS011;33323;52.124;6.018;2022-07-29T10:27:04;9.95;;;4.28;;
47599;SDS011;33323;52.124;6.018;2022-07-29T10:29:34;7.65;;;4.15;;
47599;SDS011;33323;52.124;6.018;2022-07-29T10:46:35;4.38;;;2.78;;
47599;SDS011;33323;52.124;6.018;2022-07-29T10:49:27;5.32;;;2.80;;
47599;SDS011;33323;52.124;6.018;2022-07-29T10:51:57;12.32;;;3.42;;
47599;SDS011;33323;52.124;6.018;2022-07-29T11:02:42;4.15;;;2.42;;
47599;SDS011;33323;52.124;6.018;2022-07-29T11:05:12;4.32;;;2.60;;
47599;SDS011;33323;52.124;6.018;2022-07-29T11:10:46;8.40;;;3.22;;
47599;SDS011;33323;52.124;6.018;2022-07-29T11:16:11;4.15;;;2.45;;
47599;SDS011;33323;52.124;6.018;2022-07-29T11:21:44;6.97;;;2.75;;
47599;SDS011;33323;52.124;6.018;2022-07-29T11:24:27;5.43;;;2.60;;
47599;SDS011;33323;52.124;6.018;2022-07-29T11:29:55;6.20;;;2.92;;
47599;SDS011;33323;52.124;6.018;2022-07-29T11:32:36;8.43;;;2.92;;
47599;SDS011;33323;52.124;6.018;2022-07-29T11:35:18;4.03;;;2.63;;
47599;SDS011;33323;52.124;6.018;2022-07-29T11:38:24;5.45;;;2.78;;
47599;SDS011;33323;52.124;6.018;2022-07-29T11:43:53;7.40;;;2.75;;
47599;SDS011;33323;52.124;6.018;2022-07-29T11:49:13;3.97;;;3.45;;
47599;SDS011;33323;52.124;6.018;2022-07-29T11:51:58;7.27;;;3.37;;
47599;SDS011;33323;52.124;6.018;2022-07-29T11:54:30;5.55;;;2.83;;
47599;SDS011;33323;52.124;6.018;2022-07-29T11:57:20;6.68;;;2.53;;
47599;SDS011;33323;52.124;6.018;2022-07-29T11:59:47;10.35;;;2.70;;
47599;SDS011;33323;52.124;6.018;2022-07-29T12:02:16;8.65;;;3.42;;
47599;SDS011;33323;52.124;6.018;2022-07-29T12:05:03;8.93;;;3.50;;
47599;SDS011;33323;52.124;6.018;2022-07-29T12:07:37;8.90;;;2.65;;
47599;SDS011;33323;52.124;6.018;2022-07-29T12:10:12;7.15;;;3.20;;
47599;SDS011;33323;52.124;6.018;2022-07-29T12:12:55;13.63;;;3.30;;
47599;SDS011;33323;52.124;6.018;2022-07-29T12:15:23;6.63;;;2.25;;
47599;SDS011;33323;52.124;6.018;2022-07-29T12:18:16;8.73;;;2.95;;
47599;SDS011;33323;52.124;6.018;2022-07-29T12:20:56;5.50;;;2.17;;
47599;SDS011;33323;52.124;6.018;2022-07-29T12:23:29;6.18;;;2.40;;
47599;SDS011;33323;52.124;6.018;2022-07-29T12:26:03;6.82;;;2.72;;
47599;SDS011;33323;52.124;6.018;2022-07-29T12:28:36;3.80;;;2.30;;
47599;SDS011;33323;52.124;6.018;2022-07-29T12:31:12;8.57;;;2.42;;
47599;SDS011;33323;52.124;6.018;2022-07-29T12:34:00;9.07;;;2.25;;
47599;SDS011;33323;52.124;6.018;2022-07-29T12:36:27;7.10;;;1.73;;
47599;SDS011;33323;52.124;6.018;2022-07-29T12:38:54;6.53;;;2.35;;
47599;SDS011;33323;52.124;6.018;2022-07-29T12:41:21;4.10;;;1.63;;
47599;SDS011;33323;52.124;6.018;2022-07-29T12:43:52;5.55;;;2.00;;
47599;SDS011;33323;52.124;6.018;2022-07-29T12:46:20;3.92;;;1.70;;
47599;SDS011;33323;52.124;6.018;2022-07-29T12:48:50;4.68;;;2.20;;
47599;SDS011;33323;52.124;6.018;2022-07-29T12:51:30;11.38;;;2.03;;
47599;SDS011;33323;52.124;6.018;2022-07-29T12:54:12;6.60;;;2.08;;
47599;SDS011;33323;52.124;6.018;2022-07-29T12:56:41;3.63;;;1.55;;
47599;SDS011;33323;52.124;6.018;2022-07-29T12:59:14;4.97;;;1.83;;
47599;SDS011;33323;52.124;6.018;2022-07-29T13:01:42;5.60;;;1.67;;
47599;SDS011;33323;52.124;6.018;2022-07-29T13:04:10;7.10;;;2.00;;
47599;SDS011;33323;52.124;6.018;2022-07-29T13:06:38;5.15;;;2.05;;
47599;SDS011;33323;52.124;6.018;2022-07-29T13:09:17;2.85;;;1.05;;
47599;SDS011;33323;52.124;6.018;2022-07-29T13:11:49;4.68;;;1.55;;
47599;SDS011;33323;52.124;6.018;2022-07-29T13:14:32;8.20;;;1.80;;
47599;SDS011;33323;52.124;6.018;2022-07-29T13:17:09;6.88;;;1.55;;
47599;SDS011;33323;52.124;6.018;2022-07-29T13:19:50;5.03;;;1.60;;
47599;SDS011;33323;52.124;6.018;2022-07-29T13:22:20;6.57;;;1.30;;
47599;SDS011;33323;52.124;6.018;2022-07-29T13:24:54;4.65;;;1.60;;
47599;SDS011;33323;52.124;6.018;2022-07-29T13:27:30;10.93;;;1.55;;
47599;SDS011;33323;52.124;6.018;2022-07-29T13:30:00;2.92;;;1.58;;
47599;SDS011;33323;52.124;6.018;2022-07-29T13:32:32;4.20;;;1.30;;
47599;SDS011;33323;52.124;6.018;2022-07-29T13:35:03;6.57;;;1.33;;
47599;SDS011;33323;52.124;6.018;2022-07-29T13:37:34;6.40;;;1.42;;
47599;SDS011;33323;52.124;6.018;2022-07-29T13:40:05;2.63;;;1.30;;
47599;SDS011;33323;52.124;6.018;2022-07-29T13:42:34;5.18;;;1.42;;
47599;SDS011;33323;52.124;6.018;2022-07-29T13:45:02;4.82;;;1.05;;
47599;SDS011;33323;52.124;6.018;2022-07-29T13:47:30;7.38;;;1.77;;
47599;SDS011;33323;52.124;6.018;2022-07-29T13:50:01;10.48;;;1.55;;
47599;SDS011;33323;52.124;6.018;2022-07-29T13:52:32;7.38;;;1.60;;
47599;SDS011;33323;52.124;6.018;2022-07-29T13:55:00;5.85;;;1.65;;
47599;SDS011;33323;52.124;6.018;2022-07-29T13:57:28;3.70;;;1.40;;
47599;SDS011;33323;52.124;6.018;2022-07-29T13:59:55;4.25;;;0.98;;
47599;SDS011;33323;52.124;6.018;2022-07-29T14:02:22;4.15;;;1.23;;
47599;SDS011;33323;52.124;6.018;2022-07-29T14:04:51;6.45;;;1.80;;
47599;SDS011;33323;52.124;6.018;2022-07-29T14:07:20;4.72;;;1.30;;
47599;SDS011;33323;52.124;6.018;2022-07-29T14:09:48;3.05;;;1.10;;
47599;SDS011;33323;52.124;6.018;2022-07-29T14:12:15;2.78;;;1.20;;
47599;SDS011;33323;52.124;6.018;2022-07-29T14:14:42;8.20;;;1.33;;
47599;SDS011;33323;52.124;6.018;2022-07-29T14:17:12;4.53;;;1.45;;
47599;SDS011;33323;52.124;6.018;2022-07-29T14:19:40;2.55;;;1.45;;
47599;SDS011;33323;52.124;6.018;2022-07-29T14:22:08;6.88;;;1.40;;
47599;SDS011;33323;52.124;6.018;2022-07-29T14:24:36;5.65;;;1.23;;
47599;SDS011;33323;52.124;6.018;2022-07-29T14:27:04;3.97;;;1.67;;
47599;SDS011;33323;52.124;6.018;2022-07-29T14:29:33;4.93;;;1.10;;
47599;SDS011;33323;52.124;6.018;2022-07-29T14:32:04;2.22;;;0.88;;
47599;SDS011;33323;52.124;6.018;2022-07-29T14:34:33;5.95;;;1.02;;
47599;SDS011;33323;52.124;6.018;2022-07-29T14:37:02;3.30;;;1.27;;
47599;SDS011;33323;52.124;6.018;2022-07-29T14:39:32;6.00;;;1.00;;
47599;SDS011;33323;52.124;6.018;2022-07-29T14:42:08;3.38;;;1.10;;
47599;SDS011;33323;52.124;6.018;2022-07-29T14:44:37;2.28;;;0.73;;
47599;SDS011;33323;52.124;6.018;2022-07-29T14:47:06;2.42;;;1.02;;
47599;SDS011;33323;52.124;6.018;2022-07-29T14:49:36;5.43;;;1.20;;
47599;SDS011;33323;52.124;6.018;2022-07-29T14:52:03;1.85;;;0.75;;
47599;SDS011;33323;52.124;6.018;2022-07-29T14:54:31;5.13;;;1.27;;
47599;SDS011;33323;52.124;6.018;2022-07-29T14:57:01;5.13;;;1.20;;
47599;SDS011;33323;52.124;6.018;2022-07-29T14:59:31;4.35;;;0.50;;
47599;SDS011;33323;52.124;6.018;2022-07-29T15:01:59;2.47;;;0.70;;
47599;SDS011;33323;52.124;6.018;2022-07-29T15:04:27;1.40;;;0.73;;
47599;SDS011;33323;52.124;6.018;2022-07-29T15:06:54;6.93;;;1.08;;
47599;SDS011;33323;52.124;6.018;2022-07-29T15:09:24;4.20;;;0.93;;
47599;SDS011;33323;52.124;6.018;2022-07-29T15:11:53;2.33;;;0.90;;
47599;SDS011;33323;52.124;6.018;2022-07-29T15:14:20;3.10;;;1.10;;
47599;SDS011;33323;52.124;6.018;2022-07-29T15:16:47;3.30;;;0.85;;
47599;SDS011;33323;52.124;6.018;2022-07-29T15:19:17;1.30;;;0.70;;
47599;SDS011;33323;52.124;6.018;2022-07-29T15:21:45;1.90;;;0.70;;
47599;SDS011;33323;52.124;6.018;2022-07-29T15:24:25;2.80;;;0.80;;
47599;SDS011;33323;52.124;6.018;2022-07-29T15:26:53;1.58;;;1.23;;
47599;SDS011;33323;52.124;6.018;2022-07-29T15:29:20;3.25;;;1.35;;
47599;SDS011;33323;52.124;6.018;2022-07-29T15:31:47;3.05;;;1.00;;
47599;SDS011;33323;52.124;6.018;2022-07-29T15:34:18;3.85;;;0.98;;
47599;SDS011;33323;52.124;6.018;2022-07-29T15:36:46;2.50;;;1.13;;
47599;SDS011;33323;52.124;6.018;2022-07-29T15:39:18;2.45;;;1.05;;
47599;SDS011;33323;52.124;6.018;2022-07-29T15:41:46;3.60;;;1.17;;
47599;SDS011;33323;52.124;6.018;2022-07-29T15:44:13;4.05;;;1.00;;
47599;SDS011;33323;52.124;6.018;2022-07-29T15:46:40;2.08;;;1.35;;
47599;SDS011;33323;52.124;6.018;2022-07-29T15:49:27;3.20;;;0.80;;
47599;SDS011;33323;52.124;6.018;2022-07-29T15:52:14;2.95;;;1.25;;
47599;SDS011;33323;52.124;6.018;2022-07-29T15:54:52;1.38;;;0.70;;
47599;SDS011;33323;52.124;6.018;2022-07-29T15:57:20;1.95;;;1.33;;
47599;SDS011;33323;52.124;6.018;2022-07-29T15:59:48;1.95;;;1.10;;
47599;SDS011;33323;52.124;6.018;2022-07-29T16:02:15;3.58;;;0.90;;
47599;SDS011;33323;52.124;6.018;2022-07-29T16:04:42;3.60;;;1.15;;
47599;SDS011;33323;52.124;6.018;2022-07-29T16:07:09;4.07;;;1.40;;